Time;durP1;ratioP1;P1;durP2;ratioP2;P2;SDS_P1;SDS_P2;PMS_P1;PMS_P2;Temp;Humidity;BMP_temperature;BMP_pressure;BME280_temperature;BME280_humidity;BME280_pressure;Samples;Min_cycle;Max_cycle;Signal;HPM_P1;HPM_P2
2022/04/25 00:02:19;;;;;;;27.50;19.55;;;;;;;8.41;76.80;100605.64;1744625;82;20889;-78
2022/04/25 00:04:46;;;;;;;24.90;18.25;;;;;;;8.42;77.56;100603.86;1744699;81;21777;-79
2022/04/25 00:07:12;;;;;;;26.57;17.62;;;;;;;8.41;76.93;100616.56;1744719;82;20841;-79
2022/04/25 00:09:41;;;;;;;26.85;17.23;;;;;;;8.35;76.64;100619.45;1745831;81;20936;-78
2022/04/25 00:12:09;;;;;;;29.42;18.95;;;;;;;8.26;76.82;100621.59;1744579;82;20913;-79
2022/04/25 00:14:37;;;;;;;26.75;19.17;;;;;;;8.19;77.20;100625.44;1744743;82;20948;-79
2022/04/25 00:17:04;;;;;;;28.15;18.35;;;;;;;8.15;77.67;100617.83;1744596;81;21238;-80
2022/04/25 00:19:32;;;;;;;23.52;18.90;;;;;;;8.15;77.95;100618.67;1744541;82;20861;-79
2022/04/25 00:22:00;;;;;;;28.92;19.35;;;;;;;8.12;77.69;100612.30;1744710;80;21047;-80
2022/04/25 00:24:27;;;;;;;26.93;19.27;;;;;;;8.09;77.77;100617.23;1750315;81;20979;-80
2022/04/25 00:26:55;;;;;;;27.07;18.20;;;;;;;8.08;78.00;100614.69;1757854;81;21026;-80
2022/04/25 00:29:22;;;;;;;30.60;19.35;;;;;;;8.09;78.40;100614.62;1757903;81;21283;-80
2022/04/25 00:31:48;;;;;;;25.65;18.30;;;;;;;8.14;78.28;100621.35;1758248;81;21000;-81
2022/04/25 00:34:18;;;;;;;31.48;19.75;;;;;;;8.15;78.07;100617.83;1757943;81;20936;-80
2022/04/25 00:36:45;;;;;;;25.97;17.02;;;;;;;8.18;77.86;100621.59;1758379;81;20908;-79
2022/04/25 00:39:13;;;;;;;27.50;18.37;;;;;;;8.18;77.20;100625.50;1758023;81;20872;-79
2022/04/25 00:41:41;;;;;;;29.18;18.70;;;;;;;8.08;76.54;100635.58;1757923;80;20861;-80
2022/04/25 00:44:08;;;;;;;27.90;16.85;;;;;;;7.97;76.70;100630.88;1757763;81;21371;-79
2022/04/25 00:46:35;;;;;;;23.62;17.40;;;;;;;7.96;76.99;100637.03;1757971;81;21457;-80
2022/04/25 00:49:02;;;;;;;27.30;19.40;;;;;;;7.96;77.16;100634.86;1757861;80;20951;-80
2022/04/25 00:51:29;;;;;;;29.32;18.73;;;;;;;7.95;77.23;100631.41;1757878;81;20932;-79
2022/04/25 00:53:57;;;;;;;26.10;18.65;;;;;;;7.98;77.34;100628.66;1758968;81;21213;-80
2022/04/25 00:56:23;;;;;;;26.23;18.05;;;;;;;7.99;77.64;100635.56;1741076;81;21385;-79
2022/04/25 00:58:50;;;;;;;27.10;19.35;;;;;;;7.99;77.58;100632.95;1757861;81;21045;-79
2022/04/25 01:01:17;;;;;;;24.80;18.15;;;;;;;7.98;77.59;100633.02;1758170;80;20987;-80
2022/04/25 01:03:45;;;;;;;29.27;19.17;;;;;;;7.97;77.78;100626.13;1757888;81;20948;-80
2022/04/25 01:06:13;;;;;;;23.02;17.10;;;;;;;7.94;78.03;100625.81;1757902;81;20920;-79
2022/04/25 01:08:40;;;;;;;23.77;18.27;;;;;;;7.98;78.00;100631.28;1758057;81;20919;-79
2022/04/25 01:11:07;;;;;;;24.02;17.20;;;;;;;8.01;77.80;100626.36;1757934;80;20983;-80
2022/04/25 01:13:35;;;;;;;24.65;17.20;;;;;;;8.03;77.63;100622.75;1757864;81;20908;-79
2022/04/25 01:16:01;;;;;;;21.77;17.05;;;;;;;8.05;77.43;100620.07;1758235;81;20979;-79
2022/04/25 01:18:28;;;;;;;22.58;17.98;;;;;;;8.08;77.21;100617.30;1757946;80;21150;-80
2022/04/25 01:20:57;;;;;;;24.43;18.48;;;;;;;8.09;76.83;100611.13;1757743;80;20975;-79
2022/04/25 01:28:58;;;;;;;26.90;19.73;;;;;;;7.99;77.23;100610.76;1752671;82;20972;-79
2022/04/25 01:31:26;;;;;;;22.48;17.40;;;;;;;7.98;76.88;100609.08;1752599;80;21282;-80
2022/04/25 01:33:53;;;;;;;24.15;18.12;;;;;;;7.97;76.80;100614.38;1752535;81;20847;-80
2022/04/25 01:36:24;;;;;;;30.90;18.92;;;;;;;7.96;76.55;100611.36;1752671;80;20893;-79
2022/04/25 01:38:52;;;;;;;25.17;18.75;;;;;;;7.92;76.26;100610.68;1753854;82;20909;-81
2022/04/25 01:41:20;;;;;;;23.45;18.05;;;;;;;7.84;76.46;100616.73;1752545;82;21393;-81
2022/04/25 01:43:46;;;;;;;23.52;18.25;;;;;;;7.81;76.75;100615.58;1752752;81;21108;-79
2022/04/25 01:46:13;;;;;;;25.82;18.12;;;;;;;7.81;76.99;100617.73;1752710;82;20853;-80
2022/04/25 01:48:40;;;;;;;27.20;19.70;;;;;;;7.81;77.06;100612.51;1752549;82;20889;-79
2022/04/25 01:51:07;;;;;;;25.68;18.05;;;;;;;7.80;77.21;100605.61;1752601;82;20991;-80
2022/04/25 01:53:34;;;;;;;23.02;18.42;;;;;;;7.81;77.44;100608.59;1752814;82;21293;-80
2022/04/25 01:56:01;;;;;;;24.55;19.48;;;;;;;7.83;77.50;100609.83;1752626;80;21105;-80
2022/04/25 01:58:27;;;;;;;25.17;17.70;;;;;;;7.83;77.43;100606.75;1753009;82;20979;-80
2022/04/25 02:00:55;;;;;;;23.47;18.00;;;;;;;7.86;77.50;100614.42;1752686;82;21003;-80
2022/04/25 02:03:23;;;;;;;22.98;16.87;;;;;;;7.87;77.43;100614.83;1752710;81;20877;-80
2022/04/25 02:05:52;;;;;;;22.85;17.45;;;;;;;7.88;77.47;100617.81;1752735;82;20897;-80
2022/04/25 02:08:19;;;;;;;24.12;18.95;;;;;;;7.88;77.48;100610.44;1752764;80;21271;-80
2022/04/25 02:11:19;;;;;;;21.70;17.30;;;;;;;7.89;77.35;100613.42;1752618;82;20968;-80
2022/04/25 02:13:17;;;;;;;29.35;20.17;;;;;;;7.89;77.17;100623.44;1750064;82;20904;-79
2022/04/25 02:15:45;;;;;;;23.98;18.95;;;;;;;7.87;77.30;100618.74;1752752;82;21382;-80
2022/04/25 02:18:13;;;;;;;22.52;17.30;;;;;;;7.87;77.45;100620.52;1734239;80;20880;-79
2022/04/25 02:20:39;;;;;;;34.43;25.23;;;;;;;7.87;77.36;100613.98;1753372;80;21092;-77
2022/04/25 02:23:07;;;;;;;27.48;19.37;;;;;;;7.86;77.47;100619.64;1753655;80;21043;-79
2022/04/25 02:25:35;;;;;;;28.38;18.82;;;;;;;7.88;77.65;100612.59;1756090;80;20936;-80
2022/04/25 02:28:02;;;;;;;27.85;19.92;;;;;;;7.91;77.82;100615.50;1758343;81;20933;-79
2022/04/25 02:30:29;;;;;;;23.00;19.17;;;;;;;7.94;77.84;100605.36;1758168;81;21398;-79
2022/04/25 02:32:56;;;;;;;29.10;17.80;;;;;;;7.95;77.80;100608.38;1758011;81;21275;-78
2022/04/25 02:35:22;;;;;;;27.82;16.65;;;;;;;7.95;77.75;100612.30;1758321;81;20896;-79
2022/04/25 02:37:49;;;;;;;22.82;17.17;;;;;;;7.94;77.52;100606.23;1758187;81;20944;-80
2022/04/25 02:40:15;;;;;;;23.83;17.17;;;;;;;7.94;77.31;100604.93;1758022;81;20995;-79
2022/04/25 02:42:43;;;;;;;24.77;19.48;;;;;;;7.93;76.91;100612.83;1758021;80;20888;-80
2022/04/25 02:45:11;;;;;;;23.75;19.27;;;;;;;7.87;76.83;100612.22;1758047;81;21710;-80
2022/04/25 02:47:41;;;;;;;28.10;18.35;;;;;;;7.84;76.87;100610.20;1757909;81;21081;-80
2022/04/25 02:50:08;;;;;;;25.77;17.77;;;;;;;7.82;76.37;100618.09;1758072;81;20908;-79
2022/04/25 02:52:35;;;;;;;26.62;18.23;;;;;;;7.76;76.16;100613.63;1757932;80;20924;-79
2022/04/25 02:55:02;;;;;;;23.67;18.00;;;;;;;7.72;76.16;100615.56;1758062;81;20948;-80
2022/04/25 02:57:29;;;;;;;26.12;17.77;;;;;;;7.70;76.09;100616.09;1758056;81;21242;-79
2022/04/25 02:59:57;;;;;;;22.52;18.02;;;;;;;7.67;76.08;100607.96;1760297;81;20983;-79
2022/04/25 03:02:24;;;;;;;24.57;17.77;;;;;;;7.66;75.97;100615.86;1760954;81;20938;-79
2022/04/25 03:04:52;;;;;;;23.67;17.82;;;;;;;7.63;76.23;100625.14;1760902;80;21023;-79
2022/04/25 03:07:21;;;;;;;26.97;17.85;;;;;;;7.64;76.55;100630.73;1761239;80;20884;-79
2022/04/25 03:09:48;;;;;;;26.15;17.67;;;;;;;7.65;76.52;100631.14;1759339;80;21115;-80
2022/04/25 03:12:18;;;;;;;26.17;18.73;;;;;;;7.66;76.76;100632.81;1757971;80;20932;-81
2022/04/25 03:14:47;;;;;;;23.80;16.75;;;;;;;7.68;77.31;100634.90;1758088;81;21465;-80
2022/04/25 03:17:13;;;;;;;26.97;19.45;;;;;;;7.74;77.59;100634.61;1758014;81;20936;-79
2022/04/25 03:19:40;;;;;;;27.05;18.10;;;;;;;7.79;77.30;100633.92;1758051;81;20927;-79
2022/04/25 03:22:08;;;;;;;27.90;18.27;;;;;;;7.81;77.14;100633.39;1758012;80;21457;-79
2022/04/25 03:24:35;;;;;;;34.40;19.15;;;;;;;7.83;77.25;100634.16;1756640;81;21046;-79
2022/04/25 03:27:01;;;;;;;31.70;17.95;;;;;;;7.85;77.41;100634.10;1744689;82;20893;-81
2022/04/25 03:29:29;;;;;;;26.45;17.55;;;;;;;7.91;77.92;100636.39;1744654;82;20905;-80
2022/04/25 03:31:56;;;;;;;23.40;18.55;;;;;;;8.02;78.32;100645.01;1744629;81;20960;-80
2022/04/25 03:34:23;;;;;;;27.02;17.80;;;;;;;8.13;78.24;100645.80;1744678;82;21270;-80
2022/04/25 03:36:54;;;;;;;23.27;18.52;;;;;;;8.27;77.93;100645.94;1744498;81;20933;-78
2022/04/25 03:39:20;;;;;;;30.95;19.37;;;;;;;8.40;77.80;100638.34;1744865;82;20913;-81
2022/04/25 03:41:48;;;;;;;25.70;19.27;;;;;;;8.53;78.18;100645.97;1745042;82;21474;-79
2022/04/25 03:44:15;;;;;;;23.00;18.07;;;;;;;8.72;78.38;100645.88;1744714;80;21473;-80
2022/04/25 03:46:43;;;;;;;23.38;18.25;;;;;;;8.96;78.21;100648.99;1744795;81;20936;-80
2022/04/25 03:49:11;;;;;;;26.93;17.90;;;;;;;9.19;77.98;100646.45;1745374;82;20937;-77
2022/04/25 03:51:38;;;;;;;29.25;19.50;;;;;;;9.39;76.96;100639.30;1745105;82;20943;-81
2022/04/25 03:54:06;;;;;;;27.07;20.48;;;;;;;9.52;76.34;100639.00;1744541;81;20960;-80
2022/04/25 03:59:18;;;;;;;;;;;;;;;9.79;75.59;100636.61;1747261;80;21841;-79
2022/04/25 04:01:46;;;;;;;28.23;18.37;;;;;;;9.96;74.98;100639.12;1744594;81;20426;-80
2022/04/25 04:04:15;;;;;;;25.12;19.05;;;;;;;10.13;74.77;100643.84;1744929;82;20866;-80
2022/04/25 04:06:41;;;;;;;25.17;19.40;;;;;;;;;;1745009;82;20940;-79
2022/04/25 04:11:55;;;;;;;24.70;17.40;;;;;;;10.93;74.26;100643.07;1744771;82;22019;-80
2022/04/25 04:14:21;;;;;;;25.55;17.90;;;;;;;11.29;73.92;100636.00;1744661;81;20893;-79
2022/04/25 04:16:48;;;;;;;23.62;19.42;;;;;;;11.62;73.73;100638.75;1745014;82;20944;-81
2022/04/25 04:19:16;;;;;;;26.07;17.15;;;;;;;11.94;73.33;100638.47;1744809;82;20960;-79
2022/04/25 04:21:42;;;;;;;22.80;17.25;;;;;;;12.24;72.86;100638.25;1744658;82;20877;-79
2022/04/25 04:24:09;;;;;;;24.65;18.30;;;;;;;12.49;72.30;100637.91;1744980;82;21048;-81
2022/04/25 04:26:38;;;;;;;23.85;19.07;;;;;;;12.70;71.82;100633.00;1755337;80;21408;-80
2022/04/25 04:29:06;;;;;;;23.00;19.80;;;;;;;12.92;71.44;100636.30;1757988;81;21476;-81
2022/04/25 04:31:32;;;;;;;27.40;20.32;;;;;;;13.18;71.26;100641.87;1758403;80;20924;-80
2022/04/25 04:34:00;;;;;;;28.52;18.15;;;;;;;13.48;70.93;100639.38;1759129;81;20919;-80
2022/04/25 04:36:27;;;;;;;23.92;19.77;;;;;;;13.79;69.79;100639.30;1757966;81;21442;-79
2022/04/25 04:38:54;;;;;;;22.45;20.05;;;;;;;14.17;69.14;100636.11;1757919;81;20919;-80
2022/04/25 04:41:22;;;;;;;29.70;20.95;;;;;;;14.63;68.25;100636.59;1758335;81;21354;-80
2022/04/25 04:43:49;;;;;;;22.50;19.23;;;;;;;15.13;66.99;100637.94;1757948;81;20940;-80
2022/04/25 04:46:16;;;;;;;29.02;20.77;;;;;;;16.04;64.63;100637.27;1757987;81;20920;-81
2022/04/25 04:48:42;;;;;;;26.23;21.52;;;;;;;16.04;64.63;100637.27;1758233;81;21136;-79
2022/04/25 04:51:10;;;;;;;25.17;19.60;;;;;;;16.34;63.65;100639.18;1757791;80;20964;-81
2022/04/25 04:53:38;;;;;;;25.23;18.85;;;;;;;16.62;62.57;100642.61;1757968;81;20995;-82
2022/04/25 04:56:06;;;;;;;26.57;18.40;;;;;;;16.98;62.09;100646.58;1757900;81;20963;-81
2022/04/25 04:58:32;;;;;;;26.50;19.27;;;;;;;17.43;61.50;100647.52;1758038;81;20841;-81
2022/04/25 05:01:01;;;;;;;29.52;18.90;;;;;;;17.95;60.32;100642.87;1758024;81;20915;-80
2022/04/25 05:03:28;;;;;;;29.92;19.55;;;;;;;18.49;59.07;100639.75;1757824;81;20979;-80
2022/04/25 05:05:56;;;;;;;25.52;18.67;;;;;;;18.93;57.57;100640.91;1757843;80;20967;-80
2022/04/25 05:08:23;;;;;;;22.90;20.32;;;;;;;19.37;56.25;100652.27;1757858;81;20940;-81
2022/04/25 05:10:53;;;;;;;22.25;19.67;;;;;;;19.74;54.89;100650.84;1757872;80;21362;-81
2022/04/25 05:13:20;;;;;;;24.67;19.27;;;;;;;20.12;53.90;100649.37;1757823;81;21576;-80
2022/04/25 05:15:47;;;;;;;25.77;17.60;;;;;;;20.42;52.85;100650.28;1758132;81;21498;-80
2022/04/25 05:18:15;;;;;;;26.57;20.10;;;;;;;20.77;52.54;100648.55;1759427;81;20998;-79
2022/04/25 05:20:45;;;;;;;22.80;19.70;;;;;;;21.14;51.04;100647.89;1757909;80;20912;-81
2022/04/25 05:23:13;;;;;;;22.22;19.87;;;;;;;21.45;50.17;100646.86;1757992;80;20861;-81
2022/04/25 05:25:40;;;;;;;24.65;19.02;;;;;;;21.72;48.93;100649.28;1757953;80;21170;-82
2022/04/25 05:28:07;;;;;;;23.50;20.57;;;;;;;22.01;48.99;100652.47;1758001;80;20896;-80
2022/04/25 05:30:35;;;;;;;23.30;20.08;;;;;;;22.30;47.08;100644.84;1757953;81;21528;-80
2022/04/25 05:33:03;;;;;;;18.17;16.23;;;;;;;22.60;46.76;100653.15;1757792;81;21409;-81
2022/04/25 05:35:33;;;;;;;13.55;10.55;;;;;;;22.92;45.92;100652.25;1757998;80;20920;-80
2022/04/25 05:40:19;;;;;;;20.37;18.40;;;;;;;23.67;42.56;100652.77;1854516;77;22478;-80
2022/04/25 05:42:48;;;;;;;17.85;16.02;;;;;;;23.91;43.15;100655.81;1822456;78;20832;-80
2022/04/25 05:45:21;;;;;;;22.90;16.27;;;;;;;24.18;42.26;100645.88;1822226;78;20931;-79
2022/04/25 05:47:50;;;;;;;17.57;15.75;;;;;;;24.41;42.52;100647.20;1822344;78;20968;-80
2022/04/25 05:53:02;;;;;;;7.10;4.97;;;;;;;25.00;38.58;100648.28;1759126;78;20927;-81
2022/04/25 05:55:28;;;;;;;5.58;3.08;;;;;;;25.27;36.80;100651.34;1822290;78;20943;-81
2022/04/25 05:57:56;;;;;;;4.22;2.83;;;;;;;25.49;34.16;100644.98;1822254;78;21146;-80
2022/04/25 06:00:24;;;;;;;2.80;2.55;;;;;;;25.63;33.47;100648.64;1822491;78;20903;-78
2022/04/25 06:02:51;;;;;;;4.95;2.62;;;;;;;25.76;32.75;100646.09;1823717;78;20903;-81
2022/04/25 06:05:19;;;;;;;3.00;2.15;;;;;;;25.90;32.52;100655.67;1822195;78;20974;-81
2022/04/25 06:07:47;;;;;;;2.77;2.58;;;;;;;26.02;32.42;100654.97;1822187;78;20978;-81
2022/04/25 06:10:16;;;;;;;3.95;3.12;;;;;;;26.16;32.28;100648.37;1822723;78;21116;-80
2022/04/25 06:12:50;;;;;;;5.08;2.98;;;;;;;26.35;31.51;100644.20;1822511;78;20962;-79
2022/04/25 06:15:20;;;;;;;2.70;2.50;;;;;;;26.46;31.17;100643.66;1822898;78;20934;-81
2022/04/25 06:17:47;;;;;;;2.83;2.33;;;;;;;26.51;30.93;100641.72;1825806;78;21001;-80
2022/04/25 06:20:15;;;;;;;2.70;2.47;;;;;;;26.63;31.29;100639.64;1825527;78;21476;-82
2022/04/25 06:22:54;;;;;;;2.60;2.20;;;;;;;26.86;30.78;100643.42;1824751;78;21137;-81
2022/04/25 06:25:25;;;;;;;4.03;2.20;;;;;;;27.12;29.69;100642.40;1823916;78;20915;-81
2022/04/25 06:27:53;;;;;;;2.30;1.90;;;;;;;27.07;29.34;100640.31;1822297;78;21369;-80
2022/04/25 06:30:23;;;;;;;2.90;2.65;;;;;;;26.98;29.80;100636.95;1822524;78;21381;-81
2022/04/25 06:32:52;;;;;;;2.55;2.05;;;;;;;27.06;30.13;100636.80;1823385;78;20892;-83
2022/04/25 06:35:20;;;;;;;3.85;2.15;;;;;;;27.24;29.65;100635.45;1823357;78;22064;-82
2022/04/25 06:37:47;;;;;;;4.72;2.47;;;;;;;27.42;28.89;100646.48;1823305;78;21361;-78
2022/04/25 06:40:14;;;;;;;3.60;2.30;;;;;;;27.44;28.86;100635.52;1826104;78;20895;-80
2022/04/25 06:42:42;;;;;;;2.60;2.15;;;;;;;27.56;29.09;100633.06;1826517;78;20895;-81
2022/04/25 06:45:09;;;;;;;2.55;2.10;;;;;;;27.72;29.14;100634.02;1827361;78;20943;-78
2022/04/25 06:47:37;;;;;;;3.50;2.67;;;;;;;27.83;29.93;100645.54;1827347;78;20939;-81
2022/04/25 06:50:05;;;;;;;2.12;2.00;;;;;;;28.14;30.20;100644.15;1826785;78;20907;-81
2022/04/25 06:52:33;;;;;;;4.12;3.17;;;;;;;28.46;29.83;100641.67;1826856;78;20911;-81
2022/04/25 06:55:01;;;;;;;6.70;3.58;;;;;;;28.74;28.97;100645.47;1826355;78;21004;-81
2022/04/25 06:57:30;;;;;;;8.45;3.02;;;;;;;28.81;28.45;100644.10;1826275;78;20942;-82
2022/04/25 06:59:57;;;;;;;7.90;2.72;;;;;;;28.82;28.54;100641.73;1826152;78;21341;-83
2022/04/25 07:02:24;;;;;;;7.67;2.80;;;;;;;28.91;28.66;100641.80;1826125;78;20906;-81
2022/04/25 07:04:51;;;;;;;8.53;3.62;;;;;;;29.10;27.98;100647.70;1826014;78;20848;-82
2022/04/25 07:07:19;;;;;;;6.83;2.60;;;;;;;29.13;27.49;100641.85;1825997;78;20931;-80
2022/04/25 07:09:46;;;;;;;5.65;2.95;;;;;;;29.02;27.44;100634.91;1826049;78;20880;-81
2022/04/25 07:12:13;;;;;;;8.43;2.90;;;;;;;28.93;27.97;100635.14;1826171;78;21158;-81
2022/04/25 07:14:41;;;;;;;3.72;2.50;;;;;;;29.06;28.49;100635.62;1826036;78;20903;-80
2022/04/25 07:17:09;;;;;;;4.55;2.70;;;;;;;29.21;27.92;100632.66;1826039;78;20899;-82
2022/04/25 07:19:39;;;;;;;4.83;2.85;;;;;;;29.40;28.20;100630.92;1826002;78;21017;-84
2022/04/25 07:30:23;;;;;;;6.80;3.20;;;;;;;29.94;26.74;100640.37;1827165;78;20914;-81
2022/04/25 07:32:49;;;;;;;6.37;2.58;;;;;;;29.95;26.96;100643.39;1826704;78;20923;-81
2022/04/25 07:35:16;;;;;;;8.03;2.27;;;;;;;29.92;26.87;100641.11;1826476;78;20966;-81
2022/04/25 07:37:42;;;;;;;4.42;2.55;;;;;;;29.89;27.40;100634.80;1826294;78;21140;-82
2022/04/25 07:40:09;;;;;;;4.70;2.77;;;;;;;30.02;26.86;100627.64;1823621;78;21584;-81
2022/04/25 07:42:38;;;;;;;3.02;2.25;;;;;;;30.15;27.24;100628.89;1823221;78;21480;-80
2022/04/25 07:45:07;;;;;;;5.17;2.70;;;;;;;30.42;27.47;100624.09;1822726;78;20887;-82
2022/04/25 07:47:35;;;;;;;3.40;2.55;;;;;;;30.64;26.37;100621.78;1822775;78;20911;-81
2022/04/25 07:50:01;;;;;;;6.97;2.90;;;;;;;30.63;25.96;100620.11;1823495;78;21175;-81
2022/04/25 07:52:29;;;;;;;7.58;3.02;;;;;;;30.56;26.57;100622.07;1822814;78;21443;-82
2022/04/25 07:54:56;;;;;;;5.50;2.62;;;;;;;30.47;26.73;100613.94;1822600;78;20966;-82
2022/04/25 07:57:25;;;;;;;2.67;2.22;;;;;;;30.57;27.95;100616.94;1822844;78;20903;-82
2022/04/25 07:59:53;;;;;;;6.35;3.17;;;;;;;30.79;27.22;100617.33;1822840;78;20907;-81
2022/04/25 08:02:20;;;;;;;5.33;3.52;;;;;;;31.00;27.01;100617.44;1823024;78;21121;-82
2022/04/25 08:04:47;;;;;;;4.58;2.85;;;;;;;31.12;26.14;100614.78;1823513;78;20974;-80
2022/04/25 08:07:14;;;;;;;6.00;2.55;;;;;;;31.13;25.75;100614.56;1823120;78;20884;-80
2022/04/25 08:09:42;;;;;;;4.92;2.30;;;;;;;31.02;25.75;100608.56;1822776;78;20852;-80
2022/04/25 08:18:00;;;;;;;4.12;2.40;;;;;;;30.65;26.03;100605.83;1815046;79;21520;-81
2022/04/25 08:20:34;;;;;;;7.67;2.55;;;;;;;30.41;26.47;100600.77;1815359;79;21432;-83
2022/04/25 08:23:03;;;;;;;4.40;2.42;;;;;;;30.38;26.51;100596.34;1815534;78;20931;-81
2022/04/25 08:25:32;;;;;;;6.72;2.08;;;;;;;30.44;27.08;100590.87;1815504;79;21381;-81
2022/04/25 08:28:00;;;;;;;4.17;2.20;;;;;;;30.58;27.17;100590.19;1815197;79;21390;-82
2022/04/25 08:30:28;;;;;;;8.63;2.83;;;;;;;30.68;26.95;100582.38;1814859;78;20869;-81
2022/04/25 08:32:56;;;;;;;3.20;2.10;;;;;;;30.86;26.89;100588.34;1815048;78;21314;-82
2022/04/25 08:35:24;;;;;;;3.17;1.90;;;;;;;30.93;26.36;100578.79;1814915;79;20931;-80
2022/04/25 08:37:54;;;;;;;3.10;1.90;;;;;;;30.79;26.43;100574.01;1815455;79;20872;-82
2022/04/25 08:40:22;;;;;;;2.62;2.20;;;;;;;30.80;26.94;100573.50;1814979;79;21652;-82
2022/04/25 08:42:51;;;;;;;3.62;2.10;;;;;;;30.97;27.47;100578.60;1814678;79;20844;-82
2022/04/25 08:45:19;;;;;;;2.62;1.72;;;;;;;31.13;26.83;100574.46;1783898;79;21457;-82
2022/04/25 08:47:53;;;;;;;4.30;2.02;;;;;;;31.34;26.49;100573.12;1814716;79;20975;-82
2022/04/25 08:50:20;;;;;;;5.25;2.50;;;;;;;31.58;26.15;100568.09;1815096;78;20915;-81
2022/04/25 08:52:52;;;;;;;5.78;4.20;;;;;;;31.71;25.58;100564.34;1815090;79;22141;-81
2022/04/25 08:55:20;;;;;;;2.98;2.12;;;;;;;31.65;25.51;100561.73;1815150;79;20956;-81
2022/04/25 08:57:51;;;;;;;6.28;2.42;;;;;;;31.53;25.66;100557.66;1815445;79;20975;-80
2022/04/25 09:00:17;;;;;;;2.67;1.77;;;;;;;31.43;25.67;100557.38;1815082;79;20892;-83
2022/04/25 09:02:47;;;;;;;2.50;1.85;;;;;;;31.40;25.56;100555.41;1814957;79;21036;-80
2022/04/25 09:05:17;;;;;;;3.00;1.95;;;;;;;31.21;24.79;100547.03;1815132;79;20978;-81
2022/04/25 09:07:45;;;;;;;5.75;2.60;;;;;;;30.98;25.46;100545.06;1814747;79;21345;-81
2022/04/25 09:10:15;;;;;;;6.08;1.70;;;;;;;30.91;25.91;100536.20;1814882;79;20932;-84
2022/04/25 09:12:46;;;;;;;3.33;1.50;;;;;;;30.92;26.22;100530.54;1814839;79;20848;-82
2022/04/25 09:15:23;;;;;;;2.92;2.00;;;;;;;30.96;26.40;100532.27;1813343;79;20845;-83
2022/04/25 09:17:53;;;;;;;3.00;1.52;;;;;;;30.96;25.28;100536.34;1814932;79;21216;-80
2022/04/25 09:20:20;;;;;;;3.87;2.00;;;;;;;30.89;25.59;100530.19;1814852;79;20876;-82
2022/04/25 09:22:48;;;;;;;4.20;2.02;;;;;;;30.84;26.45;100532.20;1784338;79;20986;-81
2022/04/25 09:25:17;;;;;;;6.03;4.70;;;;;;;30.93;26.25;100525.97;1814934;79;20926;-82
2022/04/25 09:27:44;;;;;;;3.15;2.30;;;;;;;31.08;24.96;100520.12;1815067;79;20936;-81
2022/04/25 09:30:20;;;;;;;2.72;1.72;;;;;;;31.08;25.94;100518.27;1814727;79;21233;-84
2022/04/25 09:32:52;;;;;;;2.27;1.67;;;;;;;31.11;25.28;100515.62;1816658;79;20920;-82
2022/04/25 09:35:40;;;;;;;3.22;1.30;;;;;;;31.23;25.34;100515.64;1817999;79;20959;-81
2022/04/25 09:38:08;;;;;;;4.17;1.80;;;;;;;31.33;25.19;100501.02;1816733;79;21589;-79
2022/04/25 09:40:37;;;;;;;3.50;1.50;;;;;;;31.45;25.60;100501.87;1816847;79;20911;-80
2022/04/25 09:43:18;;;;;;;3.47;1.25;;;;;;;31.52;24.83;100504.48;1815744;79;21094;-80
2022/04/25 09:45:44;;;;;;;1.95;1.50;;;;;;;31.37;23.92;100504.89;1814759;78;20892;-81
2022/04/25 09:48:15;;;;;;;3.20;1.55;;;;;;;31.39;24.37;100500.91;1814706;78;20892;-81
2022/04/25 09:50:45;;;;;;;3.25;1.10;;;;;;;31.47;24.44;100504.37;1814729;79;20931;-81
2022/04/25 09:53:11;;;;;;;3.58;1.65;;;;;;;31.49;24.30;100499.00;1814542;79;21397;-81
2022/04/25 09:55:39;;;;;;;2.87;1.10;;;;;;;31.48;23.98;100492.45;1814470;79;21156;-81
2022/04/25 09:58:18;;;;;;;1.47;1.00;;;;;;;31.54;23.91;100488.27;1814279;78;21544;-80
2022/04/25 10:00:47;;;;;;;1.77;1.32;;;;;;;31.69;24.89;100482.41;1814476;79;21496;-81
2022/04/25 10:03:16;;;;;;;1.75;1.60;;;;;;;31.71;23.26;100483.00;1814572;78;20919;-81
2022/04/25 10:05:49;;;;;;;3.42;1.12;;;;;;;31.56;23.47;100486.16;1814848;79;21002;-81
2022/04/25 10:08:18;;;;;;;4.12;1.75;;;;;;;31.55;23.95;100480.45;1814458;78;20900;-81
2022/04/25 10:10:49;;;;;;;2.55;1.80;;;;;;;31.55;24.39;100481.81;1814507;79;20864;-81
2022/04/25 10:13:18;;;;;;;2.62;1.27;;;;;;;31.61;23.88;100473.25;1814574;79;20923;-81
2022/04/25 10:15:45;;;;;;;3.08;2.08;;;;;;;31.55;24.48;100480.95;1814716;79;20857;-82
2022/04/25 10:18:15;;;;;;;2.52;1.35;;;;;;;31.64;24.58;100477.37;1814458;79;21046;-83
2022/04/25 10:20:46;;;;;;;5.80;1.55;;;;;;;31.52;24.42;100484.97;1814345;79;21174;-82
2022/04/25 10:23:14;;;;;;;2.65;1.60;;;;;;;31.39;23.73;100475.67;1814333;79;20880;-81
2022/04/25 10:25:51;;;;;;;4.37;1.87;;;;;;;30.81;24.63;100476.30;1815407;79;20864;-80
2022/04/25 10:28:26;;;;;;;3.80;1.72;;;;;;;30.30;25.95;100469.74;1815584;79;20932;-80
2022/04/25 10:30:56;;;;;;;3.05;1.75;;;;;;;30.06;25.41;100463.84;1814777;79;20865;-82
2022/04/25 10:33:23;;;;;;;4.72;1.87;;;;;;;29.81;25.70;100460.67;1759212;79;23457;-81
2022/04/25 10:35:51;;;;;;;4.72;1.70;;;;;;;29.69;25.85;100459.77;1814878;79;21485;-80
2022/04/25 10:38:48;;;;;;;3.72;1.98;;;;;;;29.83;26.12;100462.62;1814618;79;20904;-80
2022/04/25 10:44:22;;;;;;;2.67;1.45;;;;;;;30.32;26.80;100454.64;1820670;78;21006;-84
2022/04/25 10:47:11;;;;;;;7.17;1.42;;;;;;;30.30;26.48;100452.69;1820731;78;21859;-83
2022/04/25 10:50:00;;;;;;;3.25;1.82;;;;;;;30.35;25.74;100450.97;1820539;78;21794;-81
2022/04/25 10:55:31;;;;;;;2.12;1.60;;;;;;;29.69;25.97;100444.36;1820537;78;21049;-81
2022/04/25 10:58:11;;;;;;;2.22;2.05;;;;;;;29.53;26.45;100441.67;1820626;78;21460;-81
2022/04/25 11:00:45;;;;;;;2.72;1.70;;;;;;;29.47;26.79;100439.85;1820784;78;21269;-84
2022/04/25 11:03:23;;;;;;;2.65;1.65;;;;;;;29.55;27.10;100444.17;1820739;78;20892;-82
2022/04/25 11:05:57;;;;;;;3.50;1.80;;;;;;;29.55;26.54;100439.58;1820682;78;21438;-82
2022/04/25 11:08:29;;;;;;;3.93;1.87;;;;;;;29.48;26.37;100429.86;1821020;78;20947;-84
2022/04/25 11:11:20;;;;;;;2.45;2.25;;;;;;;29.41;27.00;100427.22;1822004;78;21300;-84
2022/04/25 11:14:01;;;;;;;3.95;1.60;;;;;;;29.54;26.92;100424.94;1820935;78;21919;-83
2022/04/25 11:16:28;;;;;;;5.65;2.25;;;;;;;29.67;27.08;100424.81;1820596;78;21463;-83
2022/04/25 11:19:17;;;;;;;3.80;1.37;;;;;;;29.83;26.96;100426.66;1820565;78;20983;-82
2022/04/25 11:21:49;;;;;;;3.33;2.17;;;;;;;29.97;26.56;100430.89;1820558;78;20853;-83
2022/04/25 11:24:35;;;;;;;3.95;1.60;;;;;;;30.04;25.82;100428.12;1820887;78;21017;-82
2022/04/25 11:27:11;;;;;;;5.72;1.60;;;;;;;29.86;25.70;100430.26;1820747;78;21476;-82
2022/04/25 11:29:39;;;;;;;3.85;2.35;;;;;;;29.55;26.05;100418.49;1819995;78;20998;-82
2022/04/25 11:32:32;;;;;;;7.55;2.77;;;;;;;29.24;26.27;100416.16;1820497;78;20983;-82
2022/04/25 11:35:00;;;;;;;4.37;1.65;;;;;;;28.89;27.26;100416.58;1820590;78;21385;-82
2022/04/25 11:37:29;;;;;;;4.05;2.15;;;;;;;28.65;27.26;100417.34;1820697;78;21088;-82
2022/04/25 11:40:07;;;;;;;4.53;1.92;;;;;;;28.36;27.45;100408.74;1819955;78;21417;-82
2022/04/25 11:42:36;;;;;;;2.47;1.87;;;;;;;28.14;28.50;100410.08;1814622;79;20836;-82
2022/04/25 11:45:05;;;;;;;7.28;1.82;;;;;;;27.77;27.84;100406.53;1814629;78;20923;-82
2022/04/25 11:47:33;;;;;;;4.10;2.00;;;;;;;27.18;28.53;100397.41;1814577;78;21409;-81
2022/04/25 11:50:06;;;;;;;3.40;1.90;;;;;;;26.77;29.34;100399.76;1814732;78;20877;-83
2022/04/25 11:52:34;;;;;;;1.87;1.60;;;;;;;26.59;29.73;100399.48;1814671;79;21010;-82
2022/04/25 11:55:00;;;;;;;6.42;2.02;;;;;;;26.50;30.87;100393.95;1816358;79;20888;-82
2022/04/25 11:57:27;;;;;;;3.45;1.95;;;;;;;26.53;30.92;100401.11;1815070;79;21002;-83
2022/04/25 12:00:14;;;;;;;3.75;2.00;;;;;;;26.57;30.90;100391.64;1814540;79;20916;-82
2022/04/25 12:02:42;;;;;;;3.77;2.22;;;;;;;26.58;31.19;100391.94;1814578;79;20907;-80
2022/04/25 12:05:11;;;;;;;3.58;1.80;;;;;;;26.61;30.82;100397.42;1814599;79;20912;-80
2022/04/25 12:15:34;;;;;;;3.80;2.50;;;;;;;26.52;30.32;100397.27;1814506;79;20982;-82